Hlavní strana
METAR-TAF:

METAR-TAF

Letiště :

Letiště Tbilisi

Tbilisi, Gruzie

zeměpisná šířka: 41-40-09N, zeměpisná délka: 044-57-17E, výška: 495 m

Aktuální stav počasí

Zpráva byla vytvořena před 28 minutami, v 23:00 UTC
Bezvětří
Teplota 14°C
Vlhkost vzduchu 72%
Tlak 1019 hPa
Viditelnost 10 km a více
Žádná oblačnost pod 1500 m, nevyskytují se cumulonimby.

METAR: UGTB 202300Z 00000KT CAVOK 14/09 Q1019 NOSIG

Čas: 03:28 (23:28 UTC)

Předpověď počasí

Zpráva byla vytvořena před 6 hodinami a 28 minutami, v 17:00 UTC
Předpověď platná od 20 v 18 UTC do 21 v 18 UTC
Severovýchodní vítr 7 kt
Viditelnost 10 km a více
Polojasno ve výšce 5000 ft, Cumulonimbus.
Dočasný
od 20 v 20 UTC do 21 v 06 UTC
Oblačno až skoro zataženo ve výšce 3500 ft

TAF: UGTB 201700Z 2018/2118 05007KT 9999 SCT050CB TX24/2112Z TN13/2103Z TEMPO 2020/2106 BKN035

Stav a předpovědi počasí z více než 4 000 letišť (zprávy METAR a TAF).

Červené a žluté tečky na mapě představují dostupné meteorologické stanice.

Když kurzor umístíte na tečku, zobrazí se název stanice.

Pak kliknutím zobrazíte stav a předpověď počasí.

Chcete-li změnit mapu, kliknutím na zelené tlačítko se znaménkem +mapu přiblížíte, kliknutím na zelené tlačítko se znaménkem – mapu oddálíte a kliknutím na zelené šipky přejdete na sousední mapy.


METAR-TAF: